Time;durP1;ratioP1;P1;durP2;ratioP2;P2;SDS_P1;SDS_P2;PMS_P1;PMS_P2;Temp;Humidity;BMP_temperature;BMP_pressure;BME280_temperature;BME280_humidity;BME280_pressure;Samples;Min_cycle;Max_cycle;Signal;HPM_P1;HPM_P2
2022/01/26 00:07:03;;;;;;;34.13;27.83;;;3.20;78.20;;;;;;5101094;28;20436;-46
2022/01/26 00:09:29;;;;;;;32.93;27.80;;;3.10;78.30;;;;;;5101389;28;20463;-46
2022/01/26 00:11:55;;;;;;;37.00;28.20;;;3.10;78.50;;;;;;5100792;28;20484;-46
2022/01/26 00:14:20;;;;;;;34.83;27.10;;;3.00;78.70;;;;;;5101183;28;20201;-46
2022/01/26 00:16:46;;;;;;;40.63;29.80;;;3.00;79.00;;;;;;5101089;28;20195;-46
2022/01/26 00:19:21;;;;;;;37.37;27.63;;;3.00;79.20;;;;;;5101191;28;20255;-46
2022/01/26 00:21:53;;;;;;;34.20;26.50;;;2.90;79.10;;;;;;5101055;28;20189;-46
2022/01/26 00:29:35;;;;;;;34.63;28.30;;;2.80;79.00;;;;;;5100474;28;20402;-45
2022/01/26 00:40:22;;;;;;;35.80;28.50;;;2.80;79.00;;;;;;5100438;28;20692;-46
2022/01/26 00:42:51;;;;;;;35.30;26.80;;;2.70;78.90;;;;;;5100606;28;20491;-46
2022/01/26 00:45:21;;;;;;;34.37;26.70;;;2.70;78.90;;;;;;5100598;28;20498;-45
2022/01/26 00:47:47;;;;;;;35.70;26.30;;;2.70;78.90;;;;;;5100175;28;20431;-46
2022/01/26 00:50:13;;;;;;;9.30;8.23;;;2.70;79.00;;;;;;5100255;28;20422;-46
2022/01/26 00:52:41;;;;;;;18.67;11.83;;;3.40;96.50;;;;;;5082306;28;20200;-46
2022/01/26 00:55:09;;;;;;;17.90;12.97;;;4.60;99.90;;;;;;5100743;28;20407;-46
2022/01/26 00:57:35;;;;;;;16.40;12.97;;;5.90;99.90;;;;;;5100525;28;20431;-46
2022/01/26 01:00:01;;;;;;;19.70;16.23;;;6.80;99.90;;;;;;5100199;28;20426;-46
2022/01/26 01:02:27;;;;;;;23.20;20.77;;;7.60;99.90;;;;;;5099926;28;20623;-46
2022/01/26 01:04:55;;;;;;;27.93;23.47;;;7.70;98.20;;;;;;5099916;28;20456;-46
2022/01/26 01:07:23;;;;;;;29.87;25.40;;;7.50;93.70;;;;;;5100207;28;20176;-46
2022/01/26 01:09:48;;;;;;;31.93;26.27;;;7.10;90.90;;;;;;5099872;28;20539;-46
2022/01/26 01:12:14;;;;;;;30.87;26.80;;;6.50;86.20;;;;;;5100129;28;20700;-46
2022/01/26 01:14:42;;;;;;;33.00;25.27;;;6.00;85.00;;;;;;5099888;28;20620;-46
2022/01/26 01:17:11;;;;;;;32.90;27.83;;;5.60;84.70;;;;;;5100204;28;20184;-46
2022/01/26 01:19:43;;;;;;;32.97;27.40;;;5.20;83.20;;;;;;5099744;28;20533;-46
2022/01/26 01:30:11;;;;;;;33.90;27.97;;;4.20;81.80;;;;;;5099693;28;20757;-47
2022/01/26 01:32:50;;;;;;;36.23;29.87;;;4.00;81.60;;;;;;5099778;28;20466;-46
2022/01/26 01:35:16;;;;;;;33.37;29.07;;;3.70;81.10;;;;;;5099630;28;20510;-46
2022/01/26 01:37:41;;;;;;;34.80;27.73;;;3.60;81.30;;;;;;5099989;28;20517;-46
2022/01/26 01:40:08;;;;;;;30.93;25.60;;;3.40;81.30;;;;;;5099087;28;20561;-46
2022/01/26 01:42:33;;;;;;;31.77;27.53;;;3.40;81.30;;;;;;5099310;28;20515;-46
2022/01/26 01:44:59;;;;;;;35.03;26.30;;;3.30;81.40;;;;;;5099092;28;20438;-46
2022/01/26 01:47:25;;;;;;;33.97;28.40;;;3.20;81.60;;;;;;5098800;28;20184;-46
2022/01/26 01:49:50;;;;;;;33.53;26.00;;;3.10;81.60;;;;;;5099535;28;20183;-46
2022/01/26 01:52:18;;;;;;;37.10;28.10;;;3.10;81.50;;;;;;5099041;28;20271;-46
2022/01/26 01:54:50;;;;;;;36.00;28.43;;;3.00;81.40;;;;;;5097803;28;20411;-46
2022/01/26 01:57:21;;;;;;;35.73;27.27;;;2.90;81.40;;;;;;5098700;28;20426;-46
2022/01/26 01:59:47;;;;;;;36.60;28.40;;;2.80;81.40;;;;;;5098114;28;20414;-46
2022/01/26 02:02:13;;;;;;;35.53;28.33;;;2.70;81.40;;;;;;5098993;28;20734;-45
2022/01/26 02:04:38;;;;;;;35.00;28.13;;;2.70;81.40;;;;;;5098656;28;20177;-45
2022/01/26 02:07:04;;;;;;;35.60;28.13;;;2.70;81.30;;;;;;5099183;28;20181;-45
2022/01/26 02:09:29;;;;;;;35.27;27.50;;;2.60;81.10;;;;;;5098995;28;20311;-46
2022/01/26 02:11:57;;;;;;;37.13;29.03;;;2.60;81.20;;;;;;5099078;28;20189;-45
2022/01/26 02:14:31;;;;;;;31.40;25.20;;;2.50;81.30;;;;;;5098629;28;20181;-45
2022/01/26 02:17:18;;;;;;;39.17;28.47;;;2.50;81.70;;;;;;5098693;28;20718;-45
2022/01/26 02:20:08;;;;;;;34.23;28.93;;;2.40;81.80;;;;;;5098580;28;20426;-45
2022/01/26 02:55:52;;;;;;;35.20;26.80;;;2.40;83.70;;;;;;5098000;28;20681;-46
2022/01/26 03:03:48;;;;;;;42.77;28.63;;;2.40;84.60;;;;;;5097845;28;20433;-46
2022/01/26 03:06:18;;;;;;;39.63;29.80;;;2.30;84.70;;;;;;5098043;28;20434;-46
2022/01/26 03:08:52;;;;;;;33.03;25.63;;;2.30;85.00;;;;;;5097997;28;20435;-46
2022/01/26 03:11:18;;;;;;;33.20;25.77;;;2.40;85.10;;;;;;5097949;28;20463;-46
2022/01/26 03:13:50;;;;;;;31.57;24.70;;;2.40;85.10;;;;;;5098052;28;20521;-46
2022/01/26 03:16:25;;;;;;;31.70;25.07;;;2.40;85.00;;;;;;5098087;28;20492;-46
2022/01/26 03:19:33;;;;;;;32.23;24.70;;;2.40;85.10;;;;;;5097451;28;20719;-46
2022/01/26 03:35:49;;;;;;;32.33;24.93;;;2.30;86.00;;;;;;5097443;28;20465;-46
2022/01/26 03:39:00;;;;;;;29.47;23.43;;;2.30;86.50;;;;;;5097645;28;20446;-45
2022/01/26 03:43:35;;;;;;;28.80;22.77;;;2.20;86.60;;;;;;5097756;28;20414;-46
2022/01/26 03:46:01;;;;;;;27.40;22.70;;;2.30;86.70;;;;;;5097871;28;20518;-46
2022/01/26 03:48:27;;;;;;;31.17;23.20;;;2.20;86.70;;;;;;5097946;28;20169;-46
2022/01/26 03:50:52;;;;;;;28.03;21.73;;;2.20;86.80;;;;;;5097874;28;20212;-46
2022/01/26 03:53:18;;;;;;;29.30;22.70;;;2.20;86.90;;;;;;5096528;28;20219;-46
2022/01/26 03:55:43;;;;;;;28.97;21.47;;;2.30;87.20;;;;;;5097310;28;20245;-46
2022/01/26 03:58:10;;;;;;;26.87;20.63;;;2.20;87.10;;;;;;5097603;28;20199;-46
2022/01/26 04:00:36;;;;;;;28.33;21.90;;;2.30;87.90;;;;;;5097684;28;20311;-46
2022/01/26 04:03:02;;;;;;;25.20;20.50;;;2.30;87.10;;;;;;5097824;28;20411;-46
2022/01/26 04:05:28;;;;;;;24.83;20.17;;;2.30;87.20;;;;;;5097854;28;20812;-46
2022/01/26 04:07:59;;;;;;;24.90;19.80;;;2.30;87.20;;;;;;5097481;28;20485;-46
2022/01/26 04:12:56;;;;;;;22.07;19.47;;;2.30;87.20;;;;;;5101074;28;20426;-46
2022/01/26 04:15:29;;;;;;;24.03;18.80;;;2.30;87.30;;;;;;5101018;28;20431;-46
2022/01/26 04:17:55;;;;;;;26.20;19.60;;;2.20;87.30;;;;;;5101169;28;20259;-45
2022/01/26 04:20:25;;;;;;;23.67;18.60;;;2.20;87.50;;;;;;5100604;28;20461;-46
2022/01/26 04:23:05;;;;;;;23.83;19.80;;;2.20;87.60;;;;;;5101189;28;20761;-46
2022/01/26 04:25:30;;;;;;;23.77;18.67;;;2.20;87.60;;;;;;5100890;28;20426;-46
2022/01/26 04:28:01;;;;;;;23.90;19.00;;;2.20;87.60;;;;;;5100940;28;20698;-45
2022/01/26 04:30:26;;;;;;;20.23;17.33;;;2.10;87.50;;;;;;5100661;28;20181;-46
2022/01/26 04:32:52;;;;;;;22.00;17.20;;;2.10;87.60;;;;;;5100819;28;20417;-46
2022/01/26 04:35:18;;;;;;;23.27;17.30;;;2.10;87.60;;;;;;5100854;28;20173;-46
2022/01/26 04:38:31;;;;;;;20.90;16.50;;;2.10;87.50;;;;;;5100565;28;20594;-46
2022/01/26 04:40:38;;;;;;;18.30;16.40;;;2.10;87.40;;;;;;5089924;28;20447;-46
2022/01/26 04:43:12;;;;;;;22.60;16.70;;;2.20;87.30;;;;;;5100381;28;20407;-46
2022/01/26 04:45:38;;;;;;;20.97;16.63;;;2.20;87.10;;;;;;5100496;28;20506;-46
2022/01/26 04:48:04;;;;;;;23.37;16.87;;;2.10;87.00;;;;;;5100223;28;21012;-46
2022/01/26 04:50:29;;;;;;;23.67;17.40;;;2.10;86.90;;;;;;5100790;28;20407;-46
2022/01/26 04:52:55;;;;;;;23.97;17.80;;;2.20;87.00;;;;;;5100363;28;20423;-46
2022/01/26 04:55:20;;;;;;;21.00;15.40;;;2.20;87.70;;;;;;5100731;28;20557;-46
2022/01/26 04:57:46;;;;;;;20.67;17.80;;;2.20;86.90;;;;;;5100234;28;20181;-46
2022/01/26 05:00:12;;;;;;;22.77;17.43;;;2.10;86.90;;;;;;5099545;28;20165;-46
2022/01/26 05:02:38;;;;;;;22.40;17.13;;;2.10;86.90;;;;;;5098393;28;20484;-45
2022/01/26 05:05:04;;;;;;;22.03;16.10;;;2.10;86.90;;;;;;5098911;28;20442;-48
2022/01/26 05:07:29;;;;;;;21.07;16.67;;;2.10;87.10;;;;;;5098478;28;20201;-48
2022/01/26 05:09:55;;;;;;;20.63;16.50;;;2.10;87.00;;;;;;5098745;28;20941;-47
2022/01/26 05:12:21;;;;;;;20.50;17.47;;;2.20;87.00;;;;;;5098968;28;20173;-47
2022/01/26 05:14:48;;;;;;;19.60;17.20;;;2.20;86.90;;;;;;5098172;28;20183;-48
2022/01/26 05:17:15;;;;;;;22.17;16.80;;;2.20;86.80;;;;;;5098913;28;20192;-47
2022/01/26 05:19:41;;;;;;;22.87;15.97;;;2.30;86.80;;;;;;5080136;28;20415;-47
2022/01/26 05:22:07;;;;;;;23.20;16.93;;;2.30;86.70;;;;;;5099413;28;20838;-47
2022/01/26 05:24:32;;;;;;;22.33;15.80;;;2.30;86.50;;;;;;5099504;28;20180;-47
2022/01/26 05:26:58;;;;;;;20.00;15.83;;;2.30;86.40;;;;;;5098193;28;20184;-47
2022/01/26 05:29:24;;;;;;;21.33;16.43;;;2.30;86.30;;;;;;5097632;28;20168;-47
2022/01/26 05:31:50;;;;;;;25.53;16.90;;;2.30;86.30;;;;;;5096596;28;20455;-47
2022/01/26 05:34:15;;;;;;;21.67;16.53;;;2.30;86.20;;;;;;5099501;28;20778;-47
2022/01/26 05:36:41;;;;;;;20.97;16.60;;;2.30;86.40;;;;;;5093147;28;20485;-48
2022/01/26 05:39:07;;;;;;;23.60;17.10;;;2.20;86.30;;;;;;5115202;28;20252;-47
2022/01/26 05:41:33;;;;;;;23.97;18.63;;;2.20;86.60;;;;;;5097332;28;21074;-47
2022/01/26 05:44:00;;;;;;;19.37;17.13;;;2.20;86.70;;;;;;5110773;28;20491;-48
2022/01/26 05:46:47;;;;;;;22.77;15.43;;;2.20;86.80;;;;;;5115844;28;20219;-47
2022/01/26 05:49:13;;;;;;;20.00;15.73;;;2.10;86.90;;;;;;5117391;28;20475;-47
2022/01/26 05:51:39;;;;;;;19.50;15.00;;;2.10;87.10;;;;;;5116713;28;20430;-47
2022/01/26 05:54:07;;;;;;;21.73;17.50;;;2.10;87.80;;;;;;5098355;28;20424;-47
2022/01/26 05:56:33;;;;;;;25.93;18.40;;;2.10;87.00;;;;;;5117316;28;20437;-47
2022/01/26 05:58:59;;;;;;;22.37;16.90;;;2.10;87.00;;;;;;5100506;28;20505;-47
2022/01/26 06:01:25;;;;;;;20.57;15.90;;;2.10;87.10;;;;;;5117918;28;20576;-48
2022/01/26 06:03:51;;;;;;;21.13;17.10;;;2.10;87.10;;;;;;5107671;28;20519;-48
2022/01/26 06:06:17;;;;;;;22.40;16.97;;;2.10;87.20;;;;;;5097236;28;20492;-39
2022/01/26 06:08:44;;;;;;;21.87;16.57;;;2.10;87.30;;;;;;5078542;28;20423;-41
2022/01/26 06:11:09;;;;;;;21.80;16.67;;;2.00;87.30;;;;;;5059628;28;20487;-41
2022/01/26 06:13:35;;;;;;;26.80;18.47;;;2.00;87.50;;;;;;5074426;28;20910;-38
2022/01/26 06:16:01;;;;;;;22.17;17.80;;;2.00;87.50;;;;;;5078403;28;20860;-39
2022/01/26 06:18:26;;;;;;;23.60;17.20;;;2.00;87.50;;;;;;5075272;28;20264;-39
2022/01/26 06:20:52;;;;;;;24.70;17.80;;;2.10;87.70;;;;;;5074206;28;20265;-39
2022/01/26 06:23:19;;;;;;;23.17;16.30;;;2.10;87.60;;;;;;5073986;28;20298;-39
2022/01/26 06:25:45;;;;;;;20.83;16.47;;;2.00;87.50;;;;;;5073072;28;20412;-39
2022/01/26 06:28:13;;;;;;;26.17;18.23;;;2.00;87.70;;;;;;5055951;28;21018;-39
2022/01/26 06:30:40;;;;;;;21.83;15.60;;;2.00;87.80;;;;;;5076520;28;20492;-39
2022/01/26 06:33:06;;;;;;;22.33;16.43;;;2.00;87.70;;;;;;5072310;28;20465;-40
2022/01/26 06:35:34;;;;;;;22.00;17.30;;;2.00;88.40;;;;;;5076406;28;20842;-41
2022/01/26 06:38:01;;;;;;;23.00;17.07;;;2.00;87.90;;;;;;5074207;28;20506;-40
2022/01/26 06:40:26;;;;;;;23.90;16.87;;;2.00;87.80;;;;;;5074062;28;20910;-39
2022/01/26 06:43:06;;;;;;;25.27;18.30;;;2.00;87.80;;;;;;5074554;28;20435;-39
2022/01/26 06:45:36;;;;;;;23.00;15.70;;;2.00;87.90;;;;;;5074600;28;20173;-39
2022/01/26 06:50:28;;;;;;;24.43;17.87;;;2.00;88.00;;;;;;5074509;28;20535;-39
2022/01/26 06:52:53;;;;;;;26.53;17.93;;;2.00;87.90;;;;;;5074289;28;20434;-39
2022/01/26 06:55:21;;;;;;;23.90;17.03;;;2.00;87.80;;;;;;5075189;28;20165;-39
2022/01/26 06:57:47;;;;;;;24.97;17.80;;;2.00;87.80;;;;;;5074302;28;20177;-39
2022/01/26 07:00:14;;;;;;;24.87;17.80;;;2.00;87.80;;;;;;5074170;28;20412;-39
2022/01/26 07:02:39;;;;;;;23.30;16.13;;;2.00;87.70;;;;;;5074460;28;20217;-39
2022/01/26 07:05:06;;;;;;;22.37;16.80;;;2.00;87.60;;;;;;5075142;28;20707;-39
2022/01/26 07:07:33;;;;;;;21.27;16.33;;;1.90;87.50;;;;;;5076801;28;20178;-39
2022/01/26 07:09:58;;;;;;;24.33;17.70;;;1.90;87.60;;;;;;5083891;28;20497;-39
2022/01/26 07:12:24;;;;;;;23.20;17.00;;;2.00;87.80;;;;;;5096384;28;20462;-40
2022/01/26 07:22:50;;;;;;;23.27;17.20;;;2.00;87.10;;;;;;5095869;28;20434;-39
2022/01/26 07:25:15;;;;;;;22.20;16.37;;;2.00;87.00;;;;;;5095719;28;20796;-39
2022/01/26 07:27:42;;;;;;;23.10;17.00;;;2.00;87.00;;;;;;5096031;28;20181;-41
2022/01/26 07:30:08;;;;;;;23.47;17.83;;;2.00;86.90;;;;;;5095186;28;20172;-39
2022/01/26 07:32:36;;;;;;;24.23;18.40;;;2.10;87.10;;;;;;5094897;28;20429;-41
2022/01/26 07:35:05;;;;;;;24.13;17.53;;;2.10;87.00;;;;;;5095147;28;20661;-39
2022/01/26 07:37:31;;;;;;;26.00;18.77;;;2.20;86.90;;;;;;5095066;28;20427;-40
2022/01/26 07:40:04;;;;;;;21.87;17.40;;;2.20;86.70;;;;;;5096440;28;20466;-39
2022/01/26 07:42:31;;;;;;;24.03;18.00;;;2.30;86.50;;;;;;5096208;28;20962;-40
2022/01/26 07:44:56;;;;;;;25.93;18.70;;;2.30;86.10;;;;;;5099316;28;20422;-40
2022/01/26 07:47:23;;;;;;;20.57;16.50;;;2.20;86.10;;;;;;5105582;28;21045;-39
2022/01/26 07:49:52;;;;;;;21.57;17.00;;;2.20;86.10;;;;;;5120649;28;20176;-39
2022/01/26 07:52:18;;;;;;;20.77;17.30;;;2.20;85.90;;;;;;5102369;28;20428;-40
2022/01/26 07:54:45;;;;;;;22.33;17.23;;;2.20;85.90;;;;;;5119314;28;20869;-41
2022/01/26 07:57:11;;;;;;;21.47;17.23;;;2.30;85.90;;;;;;5118286;28;20184;-40
2022/01/26 07:59:37;;;;;;;24.10;18.20;;;2.20;85.80;;;;;;5119126;28;20678;-39
2022/01/26 08:02:03;;;;;;;21.83;17.30;;;2.20;86.10;;;;;;5118758;28;20878;-39
2022/01/26 08:04:29;;;;;;;24.80;17.30;;;2.20;86.30;;;;;;5118799;28;20175;-41
2022/01/26 08:06:54;;;;;;;24.80;18.97;;;2.30;86.40;;;;;;5118782;28;20466;-39
2022/01/26 08:09:20;;;;;;;23.07;17.40;;;2.30;86.30;;;;;;5118839;28;20168;-40
2022/01/26 08:11:45;;;;;;;22.20;17.70;;;2.40;86.30;;;;;;5119761;28;20199;-40
2022/01/26 08:14:11;;;;;;;22.90;18.07;;;2.50;86.20;;;;;;5119408;28;20179;-39
2022/01/26 08:16:38;;;;;;;5.33;4.60;;;2.50;85.90;;;;;;5114764;28;20176;-46
2022/01/26 08:19:04;;;;;;;10.93;8.90;;;4.10;99.90;;;;;;5114563;28;20592;-45
2022/01/26 08:21:30;;;;;;;9.90;8.37;;;7.90;99.90;;;;;;5113639;28;20476;-47
2022/01/26 08:24:02;;;;;;;9.57;7.80;;;9.60;99.90;;;;;;5114223;28;20241;-46
2022/01/26 08:26:38;;;;;;;11.87;8.10;;;10.70;98.10;;;;;;5115448;28;20188;-46
2022/01/26 08:29:09;;;;;;;12.10;9.70;;;11.80;93.70;;;;;;5116756;28;20419;-46
2022/01/26 08:31:35;;;;;;;15.83;10.97;;;12.60;91.00;;;;;;5118317;28;20425;-47
2022/01/26 08:34:00;;;;;;;11.87;10.53;;;13.50;86.20;;;;;;5116744;28;20894;-41
2022/01/26 08:36:26;;;;;;;16.90;15.10;;;14.20;81.60;;;;;;5117744;28;20168;-40
2022/01/26 08:38:52;;;;;;;19.47;17.37;;;14.00;74.90;;;;;;5117426;28;20179;-40
2022/01/26 08:41:17;;;;;;;21.70;18.93;;;13.10;68.20;;;;;;5116888;28;20214;-39
2022/01/26 08:43:43;;;;;;;21.87;18.90;;;11.90;64.10;;;;;;5116040;28;20727;-39
2022/01/26 08:46:08;;;;;;;22.10;19.17;;;10.70;63.40;;;;;;5114998;28;20176;-41
2022/01/26 08:48:34;;;;;;;26.67;23.40;;;9.70;64.70;;;;;;5115366;28;20430;-40
2022/01/26 08:51:00;;;;;;;26.13;22.10;;;8.80;65.40;;;;;;5115999;28;20172;-41
2022/01/26 08:53:25;;;;;;;25.30;21.83;;;8.00;66.60;;;;;;5114765;28;20203;-40
2022/01/26 08:55:51;;;;;;;24.43;21.17;;;7.30;68.20;;;;;;5116192;28;20172;-41
2022/01/26 08:58:18;;;;;;;23.60;20.77;;;6.80;69.20;;;;;;5097959;28;20184;-40
2022/01/26 09:00:44;;;;;;;31.77;23.50;;;6.40;70.90;;;;;;5097993;28;20182;-41
2022/01/26 09:03:09;;;;;;;29.17;23.00;;;6.00;72.00;;;;;;5115830;28;20477;-40
2022/01/26 09:05:35;;;;;;;27.70;23.03;;;5.80;73.10;;;;;;5116044;28;20249;-40
2022/01/26 09:08:03;;;;;;;24.53;20.50;;;5.60;73.90;;;;;;5115888;28;20561;-39
2022/01/26 09:10:32;;;;;;;27.90;22.07;;;5.40;74.50;;;;;;5116828;28;20462;-40
2022/01/26 09:12:58;;;;;;;26.83;21.60;;;5.30;75.20;;;;;;5117757;28;20455;-38
2022/01/26 09:15:28;;;;;;;31.40;22.00;;;5.20;75.70;;;;;;5116634;28;20508;-39
2022/01/26 09:17:59;;;;;;;25.20;20.60;;;5.10;75.90;;;;;;5117546;28;20426;-39
2022/01/26 09:20:25;;;;;;;26.57;21.40;;;5.10;76.10;;;;;;5082562;28;20421;-40
2022/01/26 09:22:51;;;;;;;26.70;20.90;;;5.00;76.00;;;;;;5117660;28;20697;-38
2022/01/26 09:25:17;;;;;;;31.90;24.53;;;4.80;76.20;;;;;;5100439;28;20438;-39
2022/01/26 09:27:43;;;;;;;32.70;23.83;;;4.80;76.50;;;;;;5116562;28;20731;-38
2022/01/26 09:30:09;;;;;;;15.53;13.60;;;4.60;76.70;;;;;;5117401;28;20183;-41
2022/01/26 09:32:36;;;;;;;13.97;9.73;;;4.80;90.70;;;;;;5116858;28;20176;-39
2022/01/26 09:35:01;;;;;;;14.47;11.43;;;5.80;99.00;;;;;;5115283;28;20422;-38
2022/01/26 09:37:28;;;;;;;21.93;15.80;;;6.80;99.90;;;;;;5115880;28;20478;-40
2022/01/26 09:39:55;;;;;;;19.73;17.57;;;7.50;99.50;;;;;;5117716;28;20207;-41
2022/01/26 09:42:20;;;;;;;22.17;18.47;;;7.70;94.50;;;;;;5098332;28;20794;-42
2022/01/26 09:44:46;;;;;;;23.20;19.20;;;7.60;91.30;;;;;;5116438;28;20466;-38
2022/01/26 09:47:12;;;;;;;24.07;19.87;;;7.40;88.30;;;;;;5116928;28;20205;-41
2022/01/26 09:49:38;;;;;;;26.63;19.80;;;7.10;85.60;;;;;;5116545;28;20303;-40
2022/01/26 09:52:28;;;;;;;24.63;20.27;;;6.80;83.30;;;;;;5114411;28;20879;-39
2022/01/26 09:54:58;;;;;;;24.40;19.43;;;6.50;82.20;;;;;;5114845;28;20520;-41
2022/01/26 09:57:24;;;;;;;26.30;19.70;;;6.30;81.60;;;;;;5114532;28;20414;-40
2022/01/26 09:59:49;;;;;;;26.27;22.40;;;6.00;80.10;;;;;;5117137;28;20441;-40
2022/01/26 10:02:33;;;;;;;27.33;22.33;;;5.80;79.80;;;;;;5117349;28;20468;-39
2022/01/26 10:05:03;;;;;;;25.53;20.97;;;5.60;79.80;;;;;;5117624;28;20250;-39
2022/01/26 10:10:29;;;;;;;25.20;19.50;;;5.50;79.70;;;;;;5117020;28;20588;-40
2022/01/26 10:15:47;;;;;;;24.63;20.53;;;5.30;79.00;;;;;;5117187;28;20520;-40
2022/01/26 10:18:17;;;;;;;28.93;22.80;;;5.30;78.90;;;;;;5118460;28;20751;-40
2022/01/26 10:20:52;;;;;;;27.37;21.40;;;5.30;78.50;;;;;;5116330;28;20437;-40
2022/01/26 10:23:22;;;;;;;25.70;20.40;;;5.30;78.50;;;;;;5082497;28;20460;-39
2022/01/26 10:26:08;;;;;;;27.60;21.70;;;5.30;78.30;;;;;;5116815;28;20426;-39
2022/01/26 10:28:52;;;;;;;25.80;20.23;;;5.30;78.00;;;;;;5117987;28;20416;-40
2022/01/26 10:31:21;;;;;;;23.43;19.70;;;5.20;77.80;;;;;;5117402;28;21045;-40
2022/01/26 10:34:06;;;;;;;24.80;19.73;;;5.30;77.80;;;;;;5101724;28;20443;-40
2022/01/26 10:36:50;;;;;;;28.20;20.57;;;5.30;77.80;;;;;;5116408;28;20482;-40
2022/01/26 10:39:38;;;;;;;25.73;19.47;;;5.30;77.60;;;;;;5096534;28;20419;-38
2022/01/26 10:42:08;;;;;;;24.80;20.30;;;5.30;77.30;;;;;;5097183;28;20535;-40
2022/01/26 10:45:29;;;;;;;27.40;21.47;;;5.30;77.00;;;;;;5079199;28;20889;-41
2022/01/26 10:47:38;;;;;;;28.97;20.63;;;5.30;76.40;;;;;;5102971;28;20431;-40
2022/01/26 10:53:12;;;;;;;29.33;22.13;;;5.20;76.80;;;;;;5116792;28;20456;-40
2022/01/26 10:55:39;;;;;;;27.20;21.97;;;5.30;77.00;;;;;;5116067;28;20406;-40
2022/01/26 10:58:06;;;;;;;26.40;21.13;;;5.30;77.00;;;;;;5097241;28;20935;-41
2022/01/26 11:00:36;;;;;;;25.40;20.87;;;5.40;77.10;;;;;;5114159;28;20426;-41
2022/01/26 11:03:04;;;;;;;26.90;19.97;;;5.40;77.80;;;;;;5114993;28;20429;-40
2022/01/26 11:05:29;;;;;;;26.53;19.33;;;5.40;77.00;;;;;;5096898;28;20498;-40
2022/01/26 11:07:56;;;;;;;24.67;20.53;;;5.40;76.90;;;;;;5115251;28;20426;-42
2022/01/26 11:10:34;;;;;;;29.73;22.97;;;5.40;76.70;;;;;;5115617;28;20263;-41
2022/01/26 11:13:00;;;;;;;28.93;22.53;;;5.50;76.60;;;;;;5114892;28;20430;-41
2022/01/26 11:15:26;;;;;;;28.80;22.00;;;5.50;76.50;;;;;;5116763;28;20414;-40
2022/01/26 11:17:51;;;;;;;26.63;23.73;;;5.60;76.50;;;;;;5117125;28;20491;-41
2022/01/26 11:20:19;;;;;;;28.20;24.07;;;5.60;76.30;;;;;;5116384;28;20208;-40
2022/01/26 11:22:53;;;;;;;34.70;27.30;;;5.60;76.10;;;;;;5098802;28;20216;-40
2022/01/26 11:25:20;;;;;;;31.20;26.07;;;5.60;76.10;;;;;;5098292;28;20424;-40
2022/01/26 11:27:46;;;;;;;36.43;25.47;;;5.60;76.20;;;;;;5115328;28;20426;-40
2022/01/26 11:30:15;;;;;;;31.57;26.73;;;5.50;76.30;;;;;;5113528;28;20857;-40
2022/01/26 11:33:02;;;;;;;33.67;27.77;;;5.50;76.50;;;;;;5115018;28;20198;-41
2022/01/26 11:35:35;;;;;;;34.37;26.50;;;5.50;76.80;;;;;;5115847;28;20410;-41
2022/01/26 11:47:20;;;;;;;28.20;21.57;;;5.30;77.90;;;;;;5115454;28;20463;-40
2022/01/26 11:49:47;;;;;;;35.70;25.37;;;5.30;78.10;;;;;;5117191;28;20505;-40
2022/01/26 11:52:27;;;;;;;35.23;23.37;;;5.30;78.10;;;;;;5097432;28;20540;-39
2022/01/26 11:54:56;;;;;;;32.10;20.50;;;5.30;78.20;;;;;;5115384;28;20688;-39
2022/01/26 11:57:40;;;;;;;32.90;20.97;;;5.30;78.20;;;;;;5114750;28;20438;-41
2022/01/26 12:00:10;;;;;;;30.40;20.40;;;5.40;78.40;;;;;;5113445;28;20435;-40
2022/01/26 12:02:52;;;;;;;29.43;21.10;;;5.40;78.40;;;;;;5114282;28;20558;-41
2022/01/26 12:05:25;;;;;;;28.33;22.03;;;5.50;78.40;;;;;;5050744;28;20451;-41
2022/01/26 12:07:53;;;;;;;26.50;19.63;;;5.60;78.20;;;;;;5052035;28;20543;-40
2022/01/26 12:10:26;;;;;;;33.00;22.10;;;5.70;78.00;;;;;;5050941;28;20477;-40
2022/01/26 12:13:21;;;;;;;32.10;22.50;;;5.70;77.70;;;;;;5051253;28;20440;-39
2022/01/26 12:16:04;;;;;;;28.30;20.83;;;5.80;77.70;;;;;;5049414;28;20744;-41
2022/01/26 12:38:43;;;;;;;29.43;20.90;;;6.40;76.10;;;;;;5116918;28;20523;-41
2022/01/26 12:41:31;;;;;;;30.80;21.33;;;6.30;76.00;;;;;;5101953;28;20554;-39
2022/01/26 12:43:59;;;;;;;31.23;21.67;;;6.30;76.10;;;;;;5114707;28;20726;-39
2022/01/26 12:46:30;;;;;;;28.00;20.37;;;6.40;76.20;;;;;;5096802;28;20840;-39
2022/01/26 12:49:00;;;;;;;30.63;20.83;;;6.40;76.00;;;;;;5116735;28;20409;-40
2022/01/26 12:51:32;;;;;;;31.23;22.03;;;6.50;75.90;;;;;;5115613;28;20425;-39
2022/01/26 12:54:00;;;;;;;29.17;20.73;;;6.60;76.00;;;;;;5099384;28;20846;-39
2022/01/26 12:56:29;;;;;;;28.23;21.40;;;6.60;75.80;;;;;;5116151;28;20861;-40
2022/01/26 12:59:19;;;;;;;32.77;21.40;;;6.60;75.60;;;;;;5116933;28;20414;-40
2022/01/26 13:01:47;;;;;;;28.40;20.50;;;6.60;75.60;;;;;;5116582;28;20746;-41
2022/01/26 13:04:15;;;;;;;29.83;21.03;;;6.50;75.50;;;;;;5083071;28;20421;-40
2022/01/26 13:06:52;;;;;;;30.80;21.67;;;6.50;75.50;;;;;;5116818;28;20869;-40
2022/01/26 13:09:29;;;;;;;29.10;20.53;;;6.50;75.60;;;;;;5118464;28;20723;-40
2022/01/26 13:12:03;;;;;;;33.47;21.80;;;6.50;75.70;;;;;;5100291;28;20557;-41
2022/01/26 13:14:40;;;;;;;33.10;21.77;;;6.40;75.60;;;;;;5101786;28;20406;-41
2022/01/26 13:20:26;;;;;;;33.57;22.17;;;6.40;75.60;;;;;;5116153;28;20493;-40
2022/01/26 13:39:12;;;;;;;38.20;24.60;;;6.30;76.00;;;;;;5099593;28;20616;-41
2022/01/26 13:41:48;;;;;;;32.53;21.93;;;6.20;76.10;;;;;;5116974;28;20465;-39
2022/01/26 13:44:49;;;;;;;35.77;23.57;;;6.20;76.60;;;;;;5098507;28;20432;-40
2022/01/26 13:52:56;;;;;;;35.43;22.57;;;6.20;77.00;;;;;;5093168;28;20517;-40
2022/01/26 14:00:47;;;;;;;38.10;23.27;;;5.90;77.70;;;;;;5032312;28;20431;-41
2022/01/26 14:03:15;;;;;;;38.00;25.30;;;5.80;78.10;;;;;;5040521;28;20412;-40
2022/01/26 14:05:41;;;;;;;36.80;24.80;;;5.70;78.40;;;;;;5073395;28;20500;-41
2022/01/26 14:08:07;;;;;;;33.70;24.00;;;5.70;78.90;;;;;;5074482;28;21038;-41
2022/01/26 14:10:35;;;;;;;33.70;22.57;;;5.50;79.10;;;;;;5039491;28;20837;-40
2022/01/26 14:13:01;;;;;;;32.13;20.57;;;5.50;79.60;;;;;;5075718;28;20211;-40
2022/01/26 14:15:38;;;;;;;31.33;21.63;;;5.40;79.90;;;;;;5075720;28;20436;-40
2022/01/26 14:25:45;;;;;;;25.87;19.00;;;5.20;80.60;;;;;;5077043;28;20416;-38
2022/01/26 14:28:14;;;;;;;30.77;20.03;;;5.10;80.60;;;;;;5075492;28;20419;-40
2022/01/26 14:30:52;;;;;;;27.33;19.63;;;5.10;80.80;;;;;;5056699;28;20423;-41
2022/01/26 15:40:47;;;;;;;25.87;17.63;;;3.30;90.00;;;;;;5092099;28;20274;-40
2022/01/26 15:57:53;;;;;;;27.53;20.00;;;3.20;90.20;;;;;;5093303;28;20704;-38
2022/01/26 16:06:08;;;;;;;29.20;20.47;;;3.10;90.10;;;;;;5095499;28;20488;-39
2022/01/26 16:12:42;;;;;;;27.30;19.53;;;3.10;90.10;;;;;;5098453;28;20426;-38
2022/01/26 16:17:28;;;;;;;26.60;18.07;;;3.20;90.00;;;;;;5097650;28;20418;-39
2022/01/26 16:20:19;;;;;;;24.20;16.30;;;3.10;89.90;;;;;;5097392;28;20473;-40
2022/01/26 17:26:20;;;;;;;20.23;13.33;;;9.30;99.90;;;;;;5096569;28;20767;-38
2022/01/26 18:33:13;;;;;;;25.07;15.50;;;3.40;90.90;;;;;;5097227;28;20430;-46
2022/01/26 18:38:52;;;;;;;21.50;14.43;;;3.30;90.50;;;;;;5097068;28;20731;-46
2022/01/26 18:49:58;;;;;;;21.93;16.03;;;3.20;90.30;;;;;;5065575;28;20470;-46
2022/01/26 18:52:23;;;;;;;21.60;14.17;;;3.20;90.30;;;;;;5092437;28;20418;-46
2022/01/26 18:54:51;;;;;;;24.30;15.67;;;3.20;90.30;;;;;;5095458;28;20865;-46
2022/01/26 18:57:18;;;;;;;21.83;14.40;;;3.30;90.30;;;;;;5077025;28;20706;-45
2022/01/26 18:59:46;;;;;;;26.33;17.17;;;3.20;90.30;;;;;;5096178;28;20430;-45
2022/01/26 19:02:12;;;;;;;24.10;17.97;;;3.20;90.40;;;;;;5078518;28;20718;-45
2022/01/26 19:04:44;;;;;;;28.30;19.20;;;3.20;90.50;;;;;;5096497;28;20427;-46
2022/01/26 19:07:10;;;;;;;31.73;21.37;;;3.10;90.60;;;;;;5095850;28;20415;-45
2022/01/26 19:09:42;;;;;;;33.87;21.23;;;3.10;90.70;;;;;;5097191;28;20540;-46
2022/01/26 19:12:12;;;;;;;39.90;23.37;;;3.10;90.80;;;;;;5095993;28;20438;-46
2022/01/26 19:14:42;;;;;;;36.50;25.90;;;3.20;90.90;;;;;;5079319;28;20427;-46
2022/01/26 19:27:21;;;;;;;31.40;20.90;;;3.10;91.10;;;;;;5096475;28;20808;-47
2022/01/26 19:30:04;;;;;;;25.80;19.07;;;3.10;91.10;;;;;;5095847;28;20253;-47
2022/01/26 19:51:17;;;;;;;31.03;18.93;;;3.20;91.00;;;;;;5085170;28;20838;-46
2022/01/26 19:53:43;;;;;;;30.30;19.60;;;3.20;90.90;;;;;;5100198;28;20423;-47
2022/01/26 19:56:09;;;;;;;27.97;18.53;;;3.20;90.90;;;;;;5099797;28;20173;-46
2022/01/26 19:58:35;;;;;;;29.60;18.77;;;3.20;90.90;;;;;;5099928;28;20414;-46
2022/01/26 20:01:01;;;;;;;30.37;19.27;;;3.10;90.80;;;;;;5099796;28;20207;-46
2022/01/26 20:03:28;;;;;;;29.43;18.80;;;3.10;90.90;;;;;;5100112;28;20188;-46